createdAt,value
2023-02-05T00:00:12.510Z,0.00
2023-02-05T00:01:12.492Z,0.00
2023-02-05T00:02:12.521Z,0.00
2023-02-05T00:03:12.503Z,0.00
2023-02-05T00:04:12.449Z,0.00
2023-02-05T00:05:12.448Z,0.00
2023-02-05T00:06:12.419Z,0.00
2023-02-05T00:07:12.402Z,0.00
2023-02-05T00:08:12.401Z,0.00
2023-02-05T00:09:12.407Z,0.00
2023-02-05T00:10:12.396Z,0.00
2023-02-05T00:11:12.393Z,0.00
2023-02-05T00:12:12.353Z,0.00
2023-02-05T00:13:12.364Z,0.00
2023-02-05T00:14:12.333Z,0.00
2023-02-05T00:15:12.326Z,0.00
2023-02-05T00:16:12.455Z,0.00
2023-02-05T00:17:12.322Z,0.00
2023-02-05T00:18:12.313Z,0.00
2023-02-05T00:19:12.275Z,0.00
2023-02-05T00:20:12.268Z,0.00
2023-02-05T00:21:12.275Z,0.00
2023-02-05T00:22:12.244Z,0.00
2023-02-05T00:23:12.275Z,0.00
2023-02-05T00:24:12.227Z,0.00
2023-02-05T00:25:12.247Z,0.00
2023-02-05T00:26:12.201Z,0.00
2023-02-05T00:27:12.202Z,0.00
2023-02-05T00:28:12.216Z,0.00
2023-02-05T00:29:12.193Z,0.00
2023-02-05T00:30:12.158Z,0.00
2023-02-05T00:31:12.276Z,0.00
2023-02-05T00:32:12.132Z,0.00
2023-02-05T00:33:12.237Z,0.00
2023-02-05T00:34:12.137Z,0.00
2023-02-05T00:35:12.109Z,0.00
2023-02-05T00:36:12.941Z,0.00
2023-02-05T00:37:12.090Z,0.00
2023-02-05T00:38:12.083Z,0.00
2023-02-05T00:39:12.078Z,0.00
2023-02-05T00:40:12.051Z,0.00
2023-02-05T00:41:12.038Z,0.00
2023-02-05T00:42:12.040Z,0.00
2023-02-05T00:43:12.016Z,0.00
2023-02-05T00:44:12.028Z,0.00
2023-02-05T00:45:12.001Z,0.00
2023-02-05T00:46:12.173Z,0.00
2023-02-05T00:47:11.975Z,0.00
2023-02-05T00:48:11.965Z,0.00
2023-02-05T00:49:12.061Z,0.00
2023-02-05T00:50:11.951Z,0.00
2023-02-05T00:51:11.956Z,0.00
2023-02-05T00:52:11.985Z,0.00
2023-02-05T00:53:11.905Z,0.00
2023-02-05T00:54:11.925Z,0.00
2023-02-05T00:55:11.890Z,0.00
2023-02-05T00:56:11.901Z,0.00
2023-02-05T00:57:11.863Z,0.00
2023-02-05T00:58:11.856Z,0.00
2023-02-05T00:59:11.846Z,0.00
2023-02-05T01:00:11.838Z,0.00
2023-02-05T01:01:11.897Z,0.00
2023-02-05T01:02:11.853Z,0.00
2023-02-05T01:03:11.803Z,0.00
2023-02-05T01:04:11.817Z,0.00
2023-02-05T01:05:11.804Z,0.00
2023-02-05T01:06:11.809Z,0.00
2023-02-05T01:07:12.574Z,0.00
2023-02-05T01:08:11.783Z,0.00
2023-02-05T01:09:11.739Z,0.00
2023-02-05T01:10:11.735Z,0.00
2023-02-05T01:11:11.743Z,0.00
2023-02-05T01:12:11.716Z,0.00
2023-02-05T01:13:11.693Z,0.00
2023-02-05T01:14:11.684Z,0.00
2023-02-05T01:15:11.672Z,0.00
2023-02-05T01:16:11.720Z,0.00
2023-02-05T01:17:11.653Z,0.00
2023-02-05T01:18:11.644Z,0.00
2023-02-05T01:19:11.916Z,0.00
2023-02-05T01:20:11.652Z,0.00
2023-02-05T01:21:11.639Z,0.00
2023-02-05T01:22:11.610Z,0.00
2023-02-05T01:23:11.609Z,0.00
2023-02-05T01:24:11.606Z,0.00
2023-02-05T01:25:11.566Z,0.00
2023-02-05T01:26:11.560Z,0.00
2023-02-05T01:27:11.556Z,0.00
2023-02-05T01:28:11.580Z,0.00
2023-02-05T01:29:11.558Z,0.00
2023-02-05T01:30:11.551Z,0.00
2023-02-05T01:31:11.598Z,0.00
2023-02-05T01:32:11.498Z,0.00
2023-02-05T01:33:11.482Z,0.00
2023-02-05T01:34:11.475Z,0.00
2023-02-05T01:35:11.460Z,0.00
2023-02-05T01:36:11.483Z,0.00
2023-02-05T01:37:11.458Z,0.00
2023-02-05T01:38:11.431Z,0.00
2023-02-05T01:39:11.416Z,0.00
2023-02-05T01:40:11.413Z,0.00
2023-02-05T01:41:11.412Z,0.00
2023-02-05T01:42:11.387Z,0.00
2023-02-05T01:43:11.373Z,0.00
2023-02-05T01:44:11.365Z,0.00
2023-02-05T01:45:11.347Z,0.00
2023-02-05T01:46:11.389Z,0.00
2023-02-05T01:47:11.336Z,0.00
2023-02-05T01:48:11.319Z,0.00
2023-02-05T01:49:11.301Z,0.00
2023-02-05T01:50:11.305Z,0.00
2023-02-05T01:51:11.309Z,0.00
2023-02-05T01:52:11.272Z,0.00
2023-02-05T01:53:11.305Z,0.00
2023-02-05T01:54:11.255Z,0.00
2023-02-05T01:55:11.239Z,0.00
2023-02-05T01:56:11.244Z,0.00
2023-02-05T01:57:11.218Z,0.00
2023-02-05T01:58:11.231Z,0.00
2023-02-05T01:59:11.191Z,0.00
2023-02-05T02:00:11.197Z,0.00
2023-02-05T02:01:11.200Z,0.00
2023-02-05T02:02:11.164Z,0.00
2023-02-05T02:03:11.149Z,0.00
2023-02-05T02:04:11.143Z,0.00
2023-02-05T02:05:11.168Z,0.00
2023-02-05T02:06:11.145Z,0.00
2023-02-05T02:07:11.106Z,0.00
2023-02-05T02:08:11.107Z,0.00
2023-02-05T02:09:11.104Z,0.00
2023-02-05T02:10:11.074Z,0.00
2023-02-05T02:11:11.096Z,0.00
2023-02-05T02:12:11.063Z,0.00
2023-02-05T02:13:11.041Z,0.00
2023-02-05T02:14:11.035Z,0.00
2023-02-05T02:15:11.025Z,0.00
2023-02-05T02:16:11.090Z,0.00
2023-02-05T02:17:11.022Z,0.00
2023-02-05T02:18:10.994Z,0.00
2023-02-05T02:19:10.988Z,0.00
2023-02-05T02:20:10.975Z,0.00
2023-02-05T02:21:10.964Z,0.00
2023-02-05T02:22:10.980Z,0.00
2023-02-05T02:23:10.937Z,0.00
2023-02-05T02:24:10.938Z,0.00
2023-02-05T02:25:10.935Z,0.00
2023-02-05T02:26:10.918Z,0.00
2023-02-05T02:27:10.935Z,0.00
2023-02-05T02:28:10.946Z,0.00
2023-02-05T02:29:10.876Z,0.00
2023-02-05T02:30:10.877Z,0.00
2023-02-05T02:31:10.876Z,0.00
2023-02-05T02:32:10.846Z,0.00
2023-02-05T02:33:10.857Z,0.00
2023-02-05T02:34:10.822Z,0.00
2023-02-05T02:35:10.807Z,0.00
2023-02-05T02:36:10.815Z,0.00
2023-02-05T02:37:10.785Z,0.00
2023-02-05T02:38:10.799Z,0.00
2023-02-05T02:39:10.767Z,0.00
2023-02-05T02:40:10.757Z,0.00
2023-02-05T02:41:10.760Z,0.00
2023-02-05T02:42:10.735Z,0.00
2023-02-05T02:43:10.753Z,0.00
2023-02-05T02:44:10.709Z,0.00
2023-02-05T02:45:10.710Z,0.00
2023-02-05T02:46:10.695Z,0.00
2023-02-05T02:47:10.688Z,0.00
2023-02-05T02:48:10.714Z,0.00
2023-02-05T02:49:10.662Z,0.00
2023-02-05T02:50:10.646Z,0.00
2023-02-05T02:51:10.642Z,0.00
2023-02-05T02:52:10.630Z,0.00
2023-02-05T02:53:10.653Z,0.00
2023-02-05T02:54:10.617Z,0.00
2023-02-05T02:55:10.621Z,0.00
2023-02-05T02:56:10.585Z,0.00
2023-02-05T02:57:10.605Z,0.00
2023-02-05T02:58:10.585Z,0.00
2023-02-05T02:59:10.555Z,0.00
2023-02-05T03:00:10.543Z,0.00
2023-02-05T03:01:10.604Z,0.00
2023-02-05T03:02:10.523Z,0.00
2023-02-05T03:03:10.548Z,0.00
2023-02-05T03:04:10.508Z,0.00
2023-02-05T03:05:10.493Z,0.00
2023-02-05T03:06:10.474Z,0.00
2023-02-05T03:07:10.473Z,0.00
2023-02-05T03:08:10.487Z,0.00
2023-02-05T03:09:10.453Z,0.00
2023-02-05T03:10:10.444Z,0.00
2023-02-05T03:11:10.432Z,0.00
2023-02-05T03:12:10.422Z,0.00
2023-02-05T03:13:10.432Z,0.00
2023-02-05T03:14:10.417Z,0.00
2023-02-05T03:15:10.392Z,0.00
2023-02-05T03:16:10.429Z,0.00
2023-02-05T03:17:10.361Z,0.00
2023-02-05T03:18:10.350Z,0.00
2023-02-05T03:19:10.367Z,0.00
2023-02-05T03:20:10.332Z,0.00
2023-02-05T03:21:10.327Z,0.00
2023-02-05T03:22:10.310Z,0.00
2023-02-05T03:23:10.303Z,0.00
2023-02-05T03:24:10.320Z,0.00
2023-02-05T03:25:10.287Z,0.00
2023-02-05T03:26:10.263Z,0.00
2023-02-05T03:27:10.266Z,0.00
2023-02-05T03:28:10.278Z,0.00
2023-02-05T03:29:10.287Z,0.00
2023-02-05T03:30:10.224Z,0.00
2023-02-05T03:31:10.326Z,0.00
2023-02-05T03:32:10.202Z,0.00
2023-02-05T03:33:10.205Z,0.00
2023-02-05T03:34:10.178Z,0.00
2023-02-05T03:35:10.174Z,0.00
2023-02-05T03:36:10.194Z,0.00
2023-02-05T03:37:10.154Z,0.00
2023-02-05T03:38:10.140Z,0.00
2023-02-05T03:39:10.159Z,0.00
2023-02-05T03:40:10.111Z,0.00
2023-02-05T03:41:10.136Z,0.00
2023-02-05T03:42:10.120Z,0.00
2023-02-05T03:43:10.085Z,0.00
2023-02-05T03:44:10.078Z,0.00
2023-02-05T03:45:10.086Z,0.00
2023-02-05T03:46:10.122Z,0.00
2023-02-05T03:47:10.058Z,0.00
2023-02-05T03:48:10.035Z,0.00
2023-02-05T03:49:10.019Z,0.00
2023-02-05T03:50:10.009Z,0.00
2023-02-05T03:51:10.000Z,0.00
2023-02-05T03:52:10.010Z,0.00
2023-02-05T03:53:09.978Z,0.00
2023-02-05T03:54:09.972Z,0.00
2023-02-05T03:55:09.957Z,0.00
2023-02-05T03:56:09.963Z,0.00
2023-02-05T03:57:09.930Z,0.00
2023-02-05T03:58:09.919Z,0.00
2023-02-05T03:59:09.915Z,0.00
2023-02-05T04:00:09.904Z,0.00
2023-02-05T04:01:09.984Z,0.00
2023-02-05T04:02:09.896Z,0.00
2023-02-05T04:03:09.870Z,0.00
2023-02-05T04:04:09.853Z,0.00
2023-02-05T04:05:09.848Z,0.00
2023-02-05T04:06:09.855Z,0.00
2023-02-05T04:07:09.833Z,0.00
2023-02-05T04:08:09.810Z,0.00
2023-02-05T04:09:09.801Z,0.00
2023-02-05T04:10:09.788Z,0.00
2023-02-05T04:11:09.812Z,0.00
2023-02-05T04:12:09.764Z,0.00
2023-02-05T04:13:09.756Z,0.00
2023-02-05T04:14:09.749Z,0.00
2023-02-05T04:15:09.735Z,0.00
2023-02-05T04:16:09.728Z,0.00
2023-02-05T04:17:09.756Z,0.00
2023-02-05T04:18:09.694Z,0.00
2023-02-05T04:19:09.689Z,0.00
2023-02-05T04:20:09.719Z,0.00
2023-02-05T04:21:09.674Z,0.00
2023-02-05T04:22:09.654Z,0.00
2023-02-05T04:23:09.665Z,0.00
2023-02-05T04:24:09.690Z,0.00
2023-02-05T04:25:09.658Z,0.00
2023-02-05T04:26:09.611Z,0.00
2023-02-05T04:27:09.604Z,0.00
2023-02-05T04:28:09.677Z,0.00
2023-02-05T04:29:09.581Z,0.00
2023-02-05T04:30:09.625Z,0.00
2023-02-05T04:31:09.570Z,0.00
2023-02-05T04:32:09.560Z,0.00
2023-02-05T04:33:09.569Z,0.00
2023-02-05T04:34:09.530Z,0.00
2023-02-05T04:35:09.549Z,0.00
2023-02-05T04:36:09.524Z,0.00
2023-02-05T04:37:09.511Z,0.00
2023-02-05T04:38:09.492Z,0.00
2023-02-05T04:39:09.517Z,0.00
2023-02-05T04:40:09.461Z,0.00
2023-02-05T04:41:09.475Z,0.00
2023-02-05T04:42:09.441Z,0.00
2023-02-05T04:43:09.449Z,0.00
2023-02-05T04:44:09.424Z,0.00
2023-02-05T04:45:09.416Z,0.00
2023-02-05T04:46:09.509Z,0.00
2023-02-05T04:47:09.388Z,0.00
2023-02-05T04:48:09.384Z,0.00
2023-02-05T04:49:09.395Z,0.00
2023-02-05T04:50:09.375Z,0.00
2023-02-05T04:51:09.382Z,0.00
2023-02-05T04:52:09.338Z,0.00
2023-02-05T04:53:09.335Z,0.00
2023-02-05T04:54:09.318Z,0.00
2023-02-05T04:55:09.309Z,0.00
2023-02-05T04:56:09.323Z,0.00
2023-02-05T04:57:09.287Z,0.00
2023-02-05T04:58:09.272Z,0.00
2023-02-05T04:59:09.264Z,0.00
2023-02-05T05:00:09.255Z,0.00
2023-02-05T05:01:09.366Z,0.00
2023-02-05T05:02:09.330Z,0.00
2023-02-05T05:03:09.223Z,0.00
2023-02-05T05:04:09.208Z,0.00
2023-02-05T05:05:09.234Z,0.00
2023-02-05T05:06:09.185Z,0.00
2023-02-05T05:07:09.178Z,0.00
2023-02-05T05:08:09.191Z,0.00
2023-02-05T05:09:09.156Z,0.00
2023-02-05T05:10:09.150Z,0.00
2023-02-05T05:11:09.141Z,0.00
2023-02-05T05:12:09.123Z,0.00
2023-02-05T05:13:09.137Z,0.00
2023-02-05T05:14:09.119Z,0.00
2023-02-05T05:15:09.097Z,0.00
2023-02-05T05:16:09.147Z,0.00
2023-02-05T05:17:09.095Z,0.00
2023-02-05T05:18:09.062Z,0.00
2023-02-05T05:19:09.045Z,0.00
2023-02-05T05:20:09.036Z,0.00
2023-02-05T05:21:09.082Z,0.00
2023-02-05T05:22:09.013Z,0.00
2023-02-05T05:23:09.006Z,0.00
2023-02-05T05:24:09.001Z,0.00
2023-02-05T05:25:08.987Z,0.00
2023-02-05T05:26:09.002Z,0.00
2023-02-05T05:27:08.986Z,0.00
2023-02-05T05:28:09.007Z,0.00
2023-02-05T05:29:08.941Z,0.00
2023-02-05T05:30:08.922Z,0.00
2023-02-05T05:31:08.979Z,0.00
2023-02-05T05:32:08.970Z,0.00
2023-02-05T05:33:08.900Z,0.00
2023-02-05T05:34:08.885Z,0.00
2023-02-05T05:35:08.905Z,0.00
2023-02-05T05:36:08.868Z,0.00
2023-02-05T05:37:08.906Z,0.00
2023-02-05T05:38:08.844Z,0.00
2023-02-05T05:39:08.834Z,0.00
2023-02-05T05:40:08.828Z,0.00
2023-02-05T05:41:08.817Z,0.00
2023-02-05T05:42:08.804Z,0.00
2023-02-05T05:43:08.815Z,0.00
2023-02-05T05:44:08.783Z,0.00
2023-02-05T05:45:08.776Z,0.00
2023-02-05T05:46:08.763Z,0.00
2023-02-05T05:47:08.750Z,0.00
2023-02-05T05:48:08.761Z,0.00
2023-02-05T05:49:08.729Z,0.00
2023-02-05T05:50:08.728Z,0.00
2023-02-05T05:51:08.709Z,0.00
2023-02-05T05:52:08.695Z,0.00
2023-02-05T05:53:08.744Z,0.00
2023-02-05T05:54:08.674Z,0.00
2023-02-05T05:55:08.666Z,0.00
2023-02-05T05:56:08.651Z,0.00
2023-02-05T05:57:08.645Z,0.00
2023-02-05T05:58:08.649Z,0.00
2023-02-05T05:59:08.621Z,0.00
2023-02-05T06:00:08.604Z,0.00
2023-02-05T06:01:08.596Z,0.00
2023-02-05T06:02:08.650Z,0.00
2023-02-05T06:03:08.591Z,0.00
2023-02-05T06:04:08.557Z,0.00
2023-02-05T06:05:08.548Z,0.00
2023-02-05T06:06:08.569Z,0.00
2023-02-05T06:07:08.532Z,0.00
2023-02-05T06:08:08.540Z,0.00
2023-02-05T06:09:08.538Z,0.00
2023-02-05T06:10:08.498Z,0.00
2023-02-05T06:11:08.484Z,0.00
2023-02-05T06:12:10.637Z,0.00
2023-02-05T06:13:08.467Z,0.00
2023-02-05T06:14:08.476Z,0.00
2023-02-05T06:15:08.455Z,0.00
2023-02-05T06:16:08.497Z,0.00
2023-02-05T06:17:08.430Z,0.00
2023-02-05T06:18:08.417Z,4.00
2023-02-05T06:19:08.418Z,0.00
2023-02-05T06:20:08.388Z,4.00
2023-02-05T06:21:08.378Z,0.00
2023-02-05T06:22:08.363Z,0.00
2023-02-05T06:23:08.366Z,0.00
2023-02-05T06:24:08.380Z,4.00
2023-02-05T06:25:08.362Z,4.00
2023-02-05T06:26:08.323Z,4.00
2023-02-05T06:27:08.312Z,4.00
2023-02-05T06:28:08.399Z,4.00
2023-02-05T06:29:08.323Z,4.00
2023-02-05T06:30:08.275Z,8.00
2023-02-05T06:31:08.387Z,8.00
2023-02-05T06:32:08.262Z,8.00
2023-02-05T06:33:08.248Z,4.00
2023-02-05T06:34:08.262Z,8.00
2023-02-05T06:35:08.230Z,8.00
2023-02-05T06:36:08.219Z,8.00
2023-02-05T06:37:08.204Z,12.00
2023-02-05T06:38:08.203Z,12.00
2023-02-05T06:39:08.207Z,12.00
2023-02-05T06:40:08.180Z,12.00
2023-02-05T06:41:08.189Z,16.00
2023-02-05T06:42:08.149Z,16.00
2023-02-05T06:43:08.137Z,16.00
2023-02-05T06:44:08.154Z,20.00
2023-02-05T06:45:08.117Z,20.00
2023-02-05T06:46:08.213Z,24.00
2023-02-05T06:47:08.097Z,24.00
2023-02-05T06:48:08.091Z,24.00
2023-02-05T06:49:08.093Z,28.00
2023-02-05T06:50:08.067Z,28.00
2023-02-05T06:51:08.051Z,28.00
2023-02-05T06:52:08.041Z,28.00
2023-02-05T06:53:08.246Z,32.00
2023-02-05T06:54:08.018Z,36.00
2023-02-05T06:55:08.031Z,40.00
2023-02-05T06:56:08.002Z,44.00
2023-02-05T06:57:08.008Z,40.00
2023-02-05T06:58:08.017Z,44.00
2023-02-05T06:59:07.967Z,48.00
2023-02-05T07:00:07.965Z,48.00
2023-02-05T07:01:07.952Z,48.00
2023-02-05T07:02:07.940Z,52.00
2023-02-05T07:03:07.947Z,56.00
2023-02-05T07:04:07.919Z,56.00
2023-02-05T07:05:07.900Z,56.00
2023-02-05T07:06:07.932Z,56.00
2023-02-05T07:07:07.885Z,56.00
2023-02-05T07:08:07.890Z,56.00
2023-02-05T07:09:07.862Z,56.00
2023-02-05T07:10:07.860Z,56.00
2023-02-05T07:11:07.849Z,56.00
2023-02-05T07:12:07.869Z,60.00
2023-02-05T07:13:07.844Z,64.00
2023-02-05T07:14:07.812Z,64.00
2023-02-05T07:15:07.803Z,64.00
2023-02-05T07:16:07.812Z,68.00
2023-02-05T07:17:07.804Z,72.00
2023-02-05T07:18:07.804Z,76.00
2023-02-05T07:19:07.756Z,84.00
2023-02-05T07:20:07.763Z,84.00
2023-02-05T07:21:07.739Z,88.00
2023-02-05T07:22:07.732Z,88.00
2023-02-05T07:23:07.744Z,92.00
2023-02-05T07:24:07.707Z,100.00
2023-02-05T07:25:07.697Z,104.00
2023-02-05T07:26:07.688Z,108.00
2023-02-05T07:27:07.677Z,112.00
2023-02-05T07:28:07.726Z,116.00
2023-02-05T07:29:07.679Z,116.00
2023-02-05T07:30:07.651Z,128.00
2023-02-05T07:31:07.731Z,132.00
2023-02-05T07:32:07.715Z,136.00
2023-02-05T07:33:07.618Z,140.00
2023-02-05T07:34:07.604Z,144.00
2023-02-05T07:35:07.590Z,144.00
2023-02-05T07:36:07.585Z,144.00
2023-02-05T07:37:07.591Z,140.00
2023-02-05T07:38:07.581Z,140.00
2023-02-05T07:39:07.548Z,140.00
2023-02-05T07:40:07.534Z,136.00
2023-02-05T07:41:07.520Z,132.00
2023-02-05T07:42:07.519Z,132.00
2023-02-05T07:43:07.533Z,128.00
2023-02-05T07:44:07.505Z,128.00
2023-02-05T07:45:07.514Z,124.00
2023-02-05T07:46:07.462Z,120.00
2023-02-05T07:47:07.451Z,120.00
2023-02-05T07:48:07.475Z,120.00
2023-02-05T07:49:07.440Z,120.00
2023-02-05T07:50:07.429Z,120.00
2023-02-05T07:51:07.411Z,116.00
2023-02-05T07:52:07.400Z,120.00
2023-02-05T07:53:07.428Z,124.00
2023-02-05T07:54:07.403Z,124.00
2023-02-05T07:55:07.362Z,128.00
2023-02-05T07:56:07.352Z,128.00
2023-02-05T07:57:07.386Z,132.00
2023-02-05T07:58:07.334Z,136.00
2023-02-05T07:59:07.320Z,140.00
2023-02-05T08:00:07.318Z,144.00
2023-02-05T08:01:07.453Z,144.00
2023-02-05T08:02:07.322Z,144.00
2023-02-05T08:03:07.309Z,144.00
2023-02-05T08:04:07.346Z,152.00
2023-02-05T08:05:07.254Z,152.00
2023-02-05T08:06:07.250Z,156.00
2023-02-05T08:07:07.234Z,156.00
2023-02-05T08:08:07.255Z,164.00
2023-02-05T08:09:07.223Z,164.00
2023-02-05T08:10:07.218Z,172.00
2023-02-05T08:11:07.211Z,172.00
2023-02-05T08:12:07.205Z,180.00
2023-02-05T08:13:07.195Z,180.00
2023-02-05T08:14:07.168Z,180.00
2023-02-05T08:15:07.157Z,184.00
2023-02-05T08:16:07.259Z,196.00
2023-02-05T08:17:07.178Z,208.00
2023-02-05T08:18:07.143Z,220.00
2023-02-05T08:19:07.110Z,240.00
2023-02-05T08:20:07.129Z,260.00
2023-02-05T08:21:07.087Z,272.00
2023-02-05T08:22:07.080Z,268.00
2023-02-05T08:23:07.599Z,264.00
2023-02-05T08:24:07.056Z,256.00
2023-02-05T08:25:07.052Z,256.00
2023-02-05T08:26:07.034Z,264.00
2023-02-05T08:27:07.019Z,268.00
2023-02-05T08:28:07.126Z,276.00
2023-02-05T08:29:06.990Z,284.00
2023-02-05T08:30:07.011Z,288.00
2023-02-05T08:31:06.976Z,284.00
2023-02-05T08:32:06.972Z,284.00
2023-02-05T08:33:06.979Z,288.00
2023-02-05T08:34:06.971Z,296.00
2023-02-05T08:35:06.933Z,308.00
2023-02-05T08:36:06.932Z,316.00
2023-02-05T08:37:06.916Z,316.00
2023-02-05T08:38:06.930Z,316.00
2023-02-05T08:39:06.922Z,316.00
2023-02-05T08:40:06.894Z,316.00
2023-02-05T08:41:06.873Z,312.00
2023-02-05T08:42:06.861Z,320.00
2023-02-05T08:43:06.882Z,320.00
2023-02-05T08:44:06.872Z,320.00
2023-02-05T08:45:06.826Z,324.00
2023-02-05T08:46:06.913Z,328.00
2023-02-05T08:47:06.831Z,340.00
2023-02-05T08:48:06.791Z,340.00
2023-02-05T08:49:06.843Z,340.00
2023-02-05T08:50:06.775Z,336.00
2023-02-05T08:51:06.768Z,332.00
2023-02-05T08:52:06.763Z,332.00
2023-02-05T08:53:06.743Z,328.00
2023-02-05T08:54:06.745Z,324.00
2023-02-05T08:55:06.742Z,328.00
2023-02-05T08:56:06.723Z,332.00
2023-02-05T08:57:06.703Z,328.00
2023-02-05T08:58:06.697Z,324.00
2023-02-05T08:59:06.726Z,316.00
2023-02-05T09:00:06.693Z,320.00
2023-02-05T09:01:06.713Z,320.00
2023-02-05T09:02:06.646Z,324.00
2023-02-05T09:03:06.644Z,320.00
2023-02-05T09:04:06.630Z,316.00
2023-02-05T09:05:09.422Z,316.00
2023-02-05T09:06:06.635Z,312.00
2023-02-05T09:07:06.588Z,308.00
2023-02-05T09:08:06.700Z,304.00
2023-02-05T09:09:06.569Z,300.00
2023-02-05T09:10:06.562Z,292.00
2023-02-05T09:11:06.586Z,288.00
2023-02-05T09:12:06.553Z,292.00
2023-02-05T09:13:06.548Z,288.00
2023-02-05T09:14:06.523Z,292.00
2023-02-05T09:15:06.514Z,292.00
2023-02-05T09:16:06.528Z,296.00
2023-02-05T09:17:06.518Z,296.00
2023-02-05T09:18:06.474Z,296.00
2023-02-05T09:19:06.456Z,288.00
2023-02-05T09:20:06.455Z,280.00
2023-02-05T09:21:06.495Z,268.00
2023-02-05T09:22:06.469Z,272.00
2023-02-05T09:23:06.428Z,276.00
2023-02-05T09:24:06.410Z,280.00
2023-02-05T09:25:06.395Z,276.00
2023-02-05T09:26:06.403Z,280.00
2023-02-05T09:27:06.787Z,288.00
2023-02-05T09:28:06.376Z,288.00
2023-02-05T09:29:06.354Z,288.00
2023-02-05T09:30:06.355Z,296.00
2023-02-05T09:31:06.421Z,304.00
2023-02-05T09:32:06.350Z,320.00
2023-02-05T09:33:06.312Z,336.00
2023-02-05T09:34:06.307Z,344.00
2023-02-05T09:35:06.294Z,356.00
2023-02-05T09:36:06.284Z,376.00
2023-02-05T09:37:06.314Z,392.00
2023-02-05T09:38:06.259Z,404.00
2023-02-05T09:39:15.935Z,420.00
2023-02-05T09:40:22.706Z,444.00
2023-02-05T09:41:07.222Z,460.00
2023-02-05T09:42:06.241Z,476.00
2023-02-05T09:43:06.202Z,496.00
2023-02-05T09:44:06.195Z,512.00
2023-02-05T09:45:06.195Z,532.00
2023-02-05T09:46:06.209Z,552.00
2023-02-05T09:47:06.170Z,568.00
2023-02-05T09:48:06.162Z,588.00
2023-02-05T09:49:06.143Z,600.00
2023-02-05T09:50:06.158Z,612.00
2023-02-05T09:51:06.126Z,616.00
2023-02-05T09:52:06.112Z,624.00
2023-02-05T09:53:06.130Z,628.00
2023-02-05T09:54:06.092Z,632.00
2023-02-05T09:55:06.129Z,652.00
2023-02-05T09:56:06.078Z,664.00
2023-02-05T09:57:06.055Z,684.00
2023-02-05T09:58:06.094Z,700.00
2023-02-05T09:59:06.030Z,720.00
2023-02-05T10:00:06.050Z,736.00
2023-02-05T10:01:06.040Z,760.00
2023-02-05T10:02:06.070Z,772.00
2023-02-05T10:03:05.985Z,780.00
2023-02-05T10:04:06.010Z,792.00
2023-02-05T10:05:06.005Z,800.00
2023-02-05T10:06:05.984Z,812.00
2023-02-05T10:07:05.946Z,832.00
2023-02-05T10:08:05.942Z,852.00
2023-02-05T10:09:05.974Z,868.00
2023-02-05T10:10:05.939Z,872.00
2023-02-05T10:11:05.901Z,880.00
2023-02-05T10:12:05.893Z,880.00
2023-02-05T10:13:05.876Z,880.00
2023-02-05T10:14:05.890Z,888.00
2023-02-05T10:15:05.884Z,900.00
2023-02-05T10:16:05.942Z,916.00
2023-02-05T10:17:05.839Z,932.00
2023-02-05T10:18:05.829Z,956.00
2023-02-05T10:19:05.815Z,988.00
2023-02-05T10:20:07.335Z,1000.00
2023-02-05T10:21:05.808Z,996.00
2023-02-05T10:22:05.780Z,976.00
2023-02-05T10:23:05.765Z,964.00
2023-02-05T10:24:05.765Z,968.00
2023-02-05T10:25:05.773Z,976.00
2023-02-05T10:26:05.758Z,976.00
2023-02-05T10:27:05.725Z,976.00
2023-02-05T10:28:05.782Z,984.00
2023-02-05T10:29:05.706Z,980.00
2023-02-05T10:30:05.705Z,976.00
2023-02-05T10:31:05.866Z,976.00
2023-02-05T10:32:05.683Z,984.00
2023-02-05T10:33:05.668Z,992.00
2023-02-05T10:34:05.656Z,1020.00
2023-02-05T10:35:05.643Z,1080.00
2023-02-05T10:36:05.661Z,1140.00
2023-02-05T10:37:05.630Z,1180.00
2023-02-05T10:38:06.068Z,1208.00
2023-02-05T10:39:05.600Z,1240.00
2023-02-05T10:40:05.591Z,1232.00
2023-02-05T10:41:05.626Z,1200.00
2023-02-05T10:42:05.596Z,1160.00
2023-02-05T10:43:05.560Z,1116.00
2023-02-05T10:44:05.551Z,1080.00
2023-02-05T10:45:05.538Z,1048.00
2023-02-05T10:46:05.577Z,1004.00
2023-02-05T10:47:05.515Z,972.00
2023-02-05T10:48:05.527Z,940.00
2023-02-05T10:49:05.500Z,920.00
2023-02-05T10:50:05.533Z,912.00
2023-02-05T10:51:05.506Z,896.00
2023-02-05T10:52:05.460Z,884.00
2023-02-05T10:53:05.472Z,880.00
2023-02-05T10:54:05.442Z,876.00
2023-02-05T10:55:05.426Z,872.00
2023-02-05T10:56:05.425Z,876.00
2023-02-05T10:57:05.464Z,884.00
2023-02-05T10:58:05.405Z,888.00
2023-02-05T10:59:05.381Z,904.00
2023-02-05T11:00:05.425Z,912.00
2023-02-05T11:01:05.390Z,920.00
2023-02-05T11:02:05.383Z,928.00
2023-02-05T11:03:05.342Z,932.00
2023-02-05T11:04:05.333Z,936.00
2023-02-05T11:05:05.324Z,940.00
2023-02-05T11:06:05.311Z,952.00
2023-02-05T11:07:05.320Z,960.00
2023-02-05T11:08:05.299Z,972.00
2023-02-05T11:09:05.288Z,972.00
2023-02-05T11:10:05.270Z,972.00
2023-02-05T11:11:05.252Z,976.00
2023-02-05T11:12:05.281Z,984.00
2023-02-05T11:13:05.254Z,992.00
2023-02-05T11:14:05.228Z,1000.00
2023-02-05T11:15:05.217Z,1004.00
2023-02-05T11:16:05.293Z,996.00
2023-02-05T11:17:05.222Z,996.00
2023-02-05T11:18:05.177Z,996.00
2023-02-05T11:19:05.164Z,1004.00
2023-02-05T11:20:05.162Z,1008.00
2023-02-05T11:21:05.175Z,1016.00
2023-02-05T11:22:05.149Z,1020.00
2023-02-05T11:23:05.128Z,1024.00
2023-02-05T11:24:05.110Z,1024.00
2023-02-05T11:25:05.108Z,1016.00
2023-02-05T11:26:05.111Z,1012.00
2023-02-05T11:27:05.081Z,1012.00
2023-02-05T11:28:05.110Z,1008.00
2023-02-05T11:29:05.080Z,1008.00
2023-02-05T11:30:05.050Z,1008.00
2023-02-05T11:31:05.271Z,1008.00
2023-02-05T11:32:05.217Z,1012.00
2023-02-05T11:33:05.049Z,1020.00
2023-02-05T11:34:05.037Z,1016.00
2023-02-05T11:35:04.994Z,1024.00
2023-02-05T11:36:05.011Z,1028.00
2023-02-05T11:37:04.982Z,1032.00
2023-02-05T11:38:06.664Z,1036.00
2023-02-05T11:39:04.958Z,1032.00
2023-02-05T11:40:04.942Z,1028.00
2023-02-05T11:41:04.936Z,1028.00
2023-02-05T11:42:04.921Z,1024.00
2023-02-05T11:43:04.931Z,1028.00
2023-02-05T11:44:04.893Z,1028.00
2023-02-05T11:45:10.884Z,1032.00
2023-02-05T11:46:05.896Z,1032.00
2023-02-05T11:47:04.872Z,1024.00
2023-02-05T11:48:04.875Z,1012.00
2023-02-05T11:49:04.847Z,1004.00
2023-02-05T11:50:04.856Z,1000.00
2023-02-05T11:51:04.826Z,992.00
2023-02-05T11:52:04.812Z,988.00
2023-02-05T11:53:04.830Z,988.00
2023-02-05T11:54:04.805Z,992.00
2023-02-05T11:55:04.788Z,1004.00
2023-02-05T11:56:04.777Z,1012.00
2023-02-05T11:57:04.758Z,1016.00
2023-02-05T11:58:04.775Z,1016.00
2023-02-05T11:59:04.735Z,1016.00
2023-02-05T12:00:04.722Z,1020.00
2023-02-05T12:01:04.719Z,1024.00
2023-02-05T12:02:04.790Z,1028.00
2023-02-05T12:03:04.773Z,1036.00
2023-02-05T12:04:04.681Z,1036.00
2023-02-05T12:05:04.686Z,1044.00
2023-02-05T12:06:04.674Z,1044.00
2023-02-05T12:07:04.663Z,1040.00
2023-02-05T12:08:04.674Z,1040.00
2023-02-05T12:09:04.648Z,1040.00
2023-02-05T12:10:04.633Z,1040.00
2023-02-05T12:11:04.620Z,1036.00
2023-02-05T12:12:04.615Z,1032.00
2023-02-05T12:13:04.594Z,1024.00
2023-02-05T12:14:04.594Z,1016.00
2023-02-05T12:15:04.579Z,1012.00
2023-02-05T12:16:04.573Z,1004.00
2023-02-05T12:17:04.547Z,996.00
2023-02-05T12:18:04.552Z,996.00
2023-02-05T12:19:04.560Z,1000.00
2023-02-05T12:20:04.506Z,1008.00
2023-02-05T12:21:04.500Z,1012.00
2023-02-05T12:22:04.490Z,1016.00
2023-02-05T12:23:04.498Z,1020.00
2023-02-05T12:24:04.492Z,1016.00
2023-02-05T12:25:04.469Z,1012.00
2023-02-05T12:26:04.450Z,1012.00
2023-02-05T12:27:04.438Z,1016.00
2023-02-05T12:28:04.463Z,1028.00
2023-02-05T12:29:04.442Z,1072.00
2023-02-05T12:30:04.406Z,1216.00
2023-02-05T12:31:04.393Z,1348.00
2023-02-05T12:32:04.379Z,1716.00
2023-02-05T12:33:04.372Z,1676.00
2023-02-05T12:34:04.404Z,1224.00
2023-02-05T12:35:04.349Z,1124.00
2023-02-05T12:36:04.337Z,1068.00
2023-02-05T12:37:04.328Z,1112.00
2023-02-05T12:38:04.314Z,1180.00
2023-02-05T12:39:04.324Z,1160.00
2023-02-05T12:40:04.292Z,1156.00
2023-02-05T12:41:04.287Z,1148.00
2023-02-05T12:42:04.272Z,1168.00
2023-02-05T12:43:04.257Z,1056.00
2023-02-05T12:44:04.264Z,952.00
2023-02-05T12:45:04.241Z,976.00
2023-02-05T12:46:04.270Z,1080.00
2023-02-05T12:47:04.217Z,1220.00
2023-02-05T12:48:04.198Z,1384.00
2023-02-05T12:49:04.211Z,1040.00
2023-02-05T12:50:04.200Z,932.00
2023-02-05T12:51:04.175Z,924.00